sensor_id;sensor_type;location;lat;lon;timestamp;temperature;humidity
63202;DHT22;49296;48.188;11.566;2023-06-05T00:00:25;20.18;51.97
63202;DHT22;49296;48.188;11.566;2023-06-05T00:02:53;20.13;52.31
63202;DHT22;49296;48.188;11.566;2023-06-05T00:05:20;20.11;52.32
63202;DHT22;49296;48.188;11.566;2023-06-05T00:07:46;20.09;52.52
63202;DHT22;49296;48.188;11.566;2023-06-05T00:10:14;20.02;52.77
63202;DHT22;49296;48.188;11.566;2023-06-05T00:12:41;20.01;53.05
63202;DHT22;49296;48.188;11.566;2023-06-05T00:15:08;19.98;53.18
63202;DHT22;49296;48.188;11.566;2023-06-05T00:17:35;19.91;53.61
63202;DHT22;49296;48.188;11.566;2023-06-05T00:20:03;19.89;53.88
63202;DHT22;49296;48.188;11.566;2023-06-05T00:22:31;19.89;53.94
63202;DHT22;49296;48.188;11.566;2023-06-05T00:24:59;19.89;54.06
63202;DHT22;49296;48.188;11.566;2023-06-05T00:27:27;19.89;54.26
63202;DHT22;49296;48.188;11.566;2023-06-05T00:29:54;19.94;54.35
63202;DHT22;49296;48.188;11.566;2023-06-05T00:32:20;19.94;54.60
63202;DHT22;49296;48.188;11.566;2023-06-05T00:34:47;19.95;54.81
63202;DHT22;49296;48.188;11.566;2023-06-05T00:37:15;19.86;55.45
63202;DHT22;49296;48.188;11.566;2023-06-05T00:39:42;19.91;55.61
63202;DHT22;49296;48.188;11.566;2023-06-05T00:42:09;19.79;56.12
63202;DHT22;49296;48.188;11.566;2023-06-05T00:44:37;19.74;56.72
63202;DHT22;49296;48.188;11.566;2023-06-05T00:47:04;19.67;57.42
63202;DHT22;49296;48.188;11.566;2023-06-05T00:49:31;19.56;58.05
63202;DHT22;49296;48.188;11.566;2023-06-05T00:51:58;19.60;58.20
63202;DHT22;49296;48.188;11.566;2023-06-05T00:54:25;19.51;58.74
63202;DHT22;49296;48.188;11.566;2023-06-05T00:56:53;19.45;59.10
63202;DHT22;49296;48.188;11.566;2023-06-05T00:59:20;19.36;59.56
63202;DHT22;49296;48.188;11.566;2023-06-05T01:01:48;19.36;59.68
63202;DHT22;49296;48.188;11.566;2023-06-05T01:04:16;19.25;60.08
63202;DHT22;49296;48.188;11.566;2023-06-05T01:06:42;19.33;60.14
63202;DHT22;49296;48.188;11.566;2023-06-05T01:09:09;19.20;60.46
63202;DHT22;49296;48.188;11.566;2023-06-05T01:11:42;19.29;60.37
63202;DHT22;49296;48.188;11.566;2023-06-05T01:14:15;19.30;60.51
63202;DHT22;49296;48.188;11.566;2023-06-05T01:16:50;19.32;60.58
63202;DHT22;49296;48.188;11.566;2023-06-05T01:19:19;19.29;60.69
63202;DHT22;49296;48.188;11.566;2023-06-05T01:21:46;19.30;60.71
63202;DHT22;49296;48.188;11.566;2023-06-05T01:24:14;19.32;60.70
63202;DHT22;49296;48.188;11.566;2023-06-05T01:26:48;19.33;60.69
63202;DHT22;49296;48.188;11.566;2023-06-05T01:29:23;19.27;60.94
63202;DHT22;49296;48.188;11.566;2023-06-05T01:31:55;19.26;61.07
63202;DHT22;49296;48.188;11.566;2023-06-05T01:34:25;19.22;61.13
63202;DHT22;49296;48.188;11.566;2023-06-05T01:36:54;19.23;61.08
63202;DHT22;49296;48.188;11.566;2023-06-05T01:39:23;19.19;61.33
63202;DHT22;49296;48.188;11.566;2023-06-05T01:41:51;19.22;61.20
63202;DHT22;49296;48.188;11.566;2023-06-05T01:44:20;19.22;61.32
63202;DHT22;49296;48.188;11.566;2023-06-05T01:46:49;19.14;61.51
63202;DHT22;49296;48.188;11.566;2023-06-05T01:49:15;19.16;61.59
63202;DHT22;49296;48.188;11.566;2023-06-05T01:51:42;19.20;61.49
63202;DHT22;49296;48.188;11.566;2023-06-05T01:54:10;19.11;61.62
63202;DHT22;49296;48.188;11.566;2023-06-05T01:56:38;19.12;61.53
63202;DHT22;49296;48.188;11.566;2023-06-05T01:59:05;19.06;61.81
63202;DHT22;49296;48.188;11.566;2023-06-05T02:01:33;19.04;61.85
63202;DHT22;49296;48.188;11.566;2023-06-05T02:04:00;18.99;61.97
63202;DHT22;49296;48.188;11.566;2023-06-05T02:06:32;18.99;61.89
63202;DHT22;49296;48.188;11.566;2023-06-05T02:09:07;19.04;61.94
63202;DHT22;49296;48.188;11.566;2023-06-05T02:11:36;18.99;62.04
63202;DHT22;49296;48.188;11.566;2023-06-05T02:14:05;18.95;62.14
63202;DHT22;49296;48.188;11.566;2023-06-05T02:16:32;18.97;62.21
63202;DHT22;49296;48.188;11.566;2023-06-05T02:18:59;18.92;62.23
63202;DHT22;49296;48.188;11.566;2023-06-05T02:21:29;18.92;62.36
63202;DHT22;49296;48.188;11.566;2023-06-05T02:23:58;18.91;62.34
63202;DHT22;49296;48.188;11.566;2023-06-05T02:26:24;18.92;62.34
63202;DHT22;49296;48.188;11.566;2023-06-05T02:28:52;18.94;62.27
63202;DHT22;49296;48.188;11.566;2023-06-05T02:31:21;18.91;62.38
63202;DHT22;49296;48.188;11.566;2023-06-05T02:33:51;18.87;62.49
63202;DHT22;49296;48.188;11.566;2023-06-05T02:36:18;18.88;62.53
63202;DHT22;49296;48.188;11.566;2023-06-05T02:38:45;18.85;62.63
63202;DHT22;49296;48.188;11.566;2023-06-05T02:41:15;18.80;62.76
63202;DHT22;49296;48.188;11.566;2023-06-05T02:43:42;18.78;62.82
63202;DHT22;49296;48.188;11.566;2023-06-05T02:46:09;18.75;62.93
63202;DHT22;49296;48.188;11.566;2023-06-05T02:48:37;18.70;63.05
63202;DHT22;49296;48.188;11.566;2023-06-05T02:51:04;18.67;63.18
63202;DHT22;49296;48.188;11.566;2023-06-05T02:53:31;18.59;63.41
63202;DHT22;49296;48.188;11.566;2023-06-05T02:55:58;18.63;63.40
63202;DHT22;49296;48.188;11.566;2023-06-05T02:58:27;18.64;63.31
63202;DHT22;49296;48.188;11.566;2023-06-05T03:00:55;18.61;63.41
63202;DHT22;49296;48.188;11.566;2023-06-05T03:03:28;18.60;63.35
63202;DHT22;49296;48.188;11.566;2023-06-05T03:05:57;18.57;63.36
63202;DHT22;49296;48.188;11.566;2023-06-05T03:08:27;18.56;63.40
63202;DHT22;49296;48.188;11.566;2023-06-05T03:10:54;18.49;63.45
63202;DHT22;49296;48.188;11.566;2023-06-05T03:13:21;18.52;63.37
63202;DHT22;49296;48.188;11.566;2023-06-05T03:15:48;18.44;63.45
63202;DHT22;49296;48.188;11.566;2023-06-05T03:18:18;18.44;63.47
63202;DHT22;49296;48.188;11.566;2023-06-05T03:20:46;18.40;63.53
63202;DHT22;49296;48.188;11.566;2023-06-05T03:23:14;18.39;63.63
63202;DHT22;49296;48.188;11.566;2023-06-05T03:25:42;18.30;63.83
63202;DHT22;49296;48.188;11.566;2023-06-05T03:28:08;18.28;63.87
63202;DHT22;49296;48.188;11.566;2023-06-05T03:30:35;18.22;63.94
63202;DHT22;49296;48.188;11.566;2023-06-05T03:33:02;18.21;64.02
63202;DHT22;49296;48.188;11.566;2023-06-05T03:35:29;18.24;64.01
63202;DHT22;49296;48.188;11.566;2023-06-05T03:37:58;18.21;64.03
63202;DHT22;49296;48.188;11.566;2023-06-05T03:40:26;18.19;64.10
63202;DHT22;49296;48.188;11.566;2023-06-05T03:42:53;18.13;64.26
63202;DHT22;49296;48.188;11.566;2023-06-05T03:45:19;18.08;64.33
63202;DHT22;49296;48.188;11.566;2023-06-05T03:47:47;18.05;64.59
63202;DHT22;49296;48.188;11.566;2023-06-05T03:50:15;18.01;64.67
63202;DHT22;49296;48.188;11.566;2023-06-05T03:52:42;18.04;64.70
63202;DHT22;49296;48.188;11.566;2023-06-05T03:55:09;18.01;64.85
63202;DHT22;49296;48.188;11.566;2023-06-05T03:57:37;18.02;64.77
63202;DHT22;49296;48.188;11.566;2023-06-05T04:00:06;18.00;64.86
63202;DHT22;49296;48.188;11.566;2023-06-05T04:02:35;17.95;64.97
63202;DHT22;49296;48.188;11.566;2023-06-05T04:05:01;17.97;65.03
63202;DHT22;49296;48.188;11.566;2023-06-05T04:07:29;17.98;64.95
63202;DHT22;49296;48.188;11.566;2023-06-05T04:09:56;18.02;64.83
63202;DHT22;49296;48.188;11.566;2023-06-05T04:12:22;18.06;64.70
63202;DHT22;49296;48.188;11.566;2023-06-05T04:14:51;18.02;64.77
63202;DHT22;49296;48.188;11.566;2023-06-05T04:17:17;18.01;64.88
63202;DHT22;49296;48.188;11.566;2023-06-05T04:19:44;17.97;65.07
63202;DHT22;49296;48.188;11.566;2023-06-05T04:22:11;17.95;65.16
63202;DHT22;49296;48.188;11.566;2023-06-05T04:24:38;17.91;65.20
63202;DHT22;49296;48.188;11.566;2023-06-05T04:27:05;17.91;65.36
63202;DHT22;49296;48.188;11.566;2023-06-05T04:29:34;17.85;65.49
63202;DHT22;49296;48.188;11.566;2023-06-05T04:32:02;17.88;65.51
63202;DHT22;49296;48.188;11.566;2023-06-05T04:34:29;17.85;65.64
63202;DHT22;49296;48.188;11.566;2023-06-05T04:36:56;17.87;65.64
63202;DHT22;49296;48.188;11.566;2023-06-05T04:39:23;17.90;65.72
63202;DHT22;49296;48.188;11.566;2023-06-05T04:41:50;17.85;65.93
63202;DHT22;49296;48.188;11.566;2023-06-05T04:44:17;17.87;65.91
63202;DHT22;49296;48.188;11.566;2023-06-05T04:46:44;17.85;66.05
63202;DHT22;49296;48.188;11.566;2023-06-05T04:49:13;17.91;66.17
63202;DHT22;49296;48.188;11.566;2023-06-05T04:51:40;17.94;66.18
63202;DHT22;49296;48.188;11.566;2023-06-05T04:54:08;18.00;66.02
63202;DHT22;49296;48.188;11.566;2023-06-05T04:56:35;18.08;65.81
63202;DHT22;49296;48.188;11.566;2023-06-05T04:59:04;18.15;65.79
63202;DHT22;49296;48.188;11.566;2023-06-05T05:01:31;18.19;65.82
63202;DHT22;49296;48.188;11.566;2023-06-05T05:03:58;18.24;65.76
63202;DHT22;49296;48.188;11.566;2023-06-05T05:06:26;18.26;65.78
63202;DHT22;49296;48.188;11.566;2023-06-05T05:08:53;18.24;65.96
63202;DHT22;49296;48.188;11.566;2023-06-05T05:11:20;18.35;65.72
63202;DHT22;49296;48.188;11.566;2023-06-05T05:13:47;18.40;65.35
63202;DHT22;49296;48.188;11.566;2023-06-05T05:16:14;18.44;65.27
63202;DHT22;49296;48.188;11.566;2023-06-05T05:18:43;18.52;65.33
63202;DHT22;49296;48.188;11.566;2023-06-05T05:21:10;18.54;65.06
63202;DHT22;49296;48.188;11.566;2023-06-05T05:23:38;18.59;65.17
63202;DHT22;49296;48.188;11.566;2023-06-05T05:26:07;18.60;64.94
63202;DHT22;49296;48.188;11.566;2023-06-05T05:28:33;18.70;64.76
63202;DHT22;49296;48.188;11.566;2023-06-05T05:31:00;18.57;64.90
63202;DHT22;49296;48.188;11.566;2023-06-05T05:33:28;18.65;65.00
63202;DHT22;49296;48.188;11.566;2023-06-05T05:35:55;18.70;64.58
63202;DHT22;49296;48.188;11.566;2023-06-05T05:38:22;18.74;64.40
63202;DHT22;49296;48.188;11.566;2023-06-05T05:40:50;18.72;64.52
63202;DHT22;49296;48.188;11.566;2023-06-05T05:43:17;18.72;64.57
63202;DHT22;49296;48.188;11.566;2023-06-05T05:45:44;18.60;64.99
63202;DHT22;49296;48.188;11.566;2023-06-05T05:48:11;18.75;64.60
63202;DHT22;49296;48.188;11.566;2023-06-05T05:50:38;18.75;64.80
63202;DHT22;49296;48.188;11.566;2023-06-05T05:53:04;18.80;64.31
63202;DHT22;49296;48.188;11.566;2023-06-05T05:55:31;18.83;64.11
63202;DHT22;49296;48.188;11.566;2023-06-05T05:58:00;18.92;64.11
63202;DHT22;49296;48.188;11.566;2023-06-05T06:00:27;18.97;63.84
63202;DHT22;49296;48.188;11.566;2023-06-05T06:02:54;19.01;63.78
63202;DHT22;49296;48.188;11.566;2023-06-05T06:05:21;19.02;63.72
63202;DHT22;49296;48.188;11.566;2023-06-05T06:07:48;18.89;63.52
63202;DHT22;49296;48.188;11.566;2023-06-05T06:10:15;18.85;63.76
63202;DHT22;49296;48.188;11.566;2023-06-05T06:12:41;18.80;63.84
63202;DHT22;49296;48.188;11.566;2023-06-05T06:15:11;18.74;63.96
63202;DHT22;49296;48.188;11.566;2023-06-05T06:17:38;18.77;63.95
63202;DHT22;49296;48.188;11.566;2023-06-05T06:20:06;18.68;64.17
63202;DHT22;49296;48.188;11.566;2023-06-05T06:22:36;18.61;64.42
63202;DHT22;49296;48.188;11.566;2023-06-05T06:25:04;18.57;64.64
63202;DHT22;49296;48.188;11.566;2023-06-05T06:27:30;18.46;64.88
63202;DHT22;49296;48.188;11.566;2023-06-05T06:29:57;18.37;65.23
63202;DHT22;49296;48.188;11.566;2023-06-05T06:32:26;18.30;65.35
63202;DHT22;49296;48.188;11.566;2023-06-05T06:34:53;18.29;65.62
63202;DHT22;49296;48.188;11.566;2023-06-05T06:37:20;18.25;65.80
63202;DHT22;49296;48.188;11.566;2023-06-05T06:39:48;18.18;65.90
63202;DHT22;49296;48.188;11.566;2023-06-05T06:42:15;18.19;66.11
63202;DHT22;49296;48.188;11.566;2023-06-05T06:44:42;18.29;66.09
63202;DHT22;49296;48.188;11.566;2023-06-05T06:47:09;18.32;66.14
63202;DHT22;49296;48.188;11.566;2023-06-05T06:49:37;18.36;66.10
63202;DHT22;49296;48.188;11.566;2023-06-05T06:52:05;18.42;65.89
63202;DHT22;49296;48.188;11.566;2023-06-05T06:54:31;18.47;66.16
63202;DHT22;49296;48.188;11.566;2023-06-05T06:56:59;18.57;65.58
63202;DHT22;49296;48.188;11.566;2023-06-05T06:59:26;18.67;65.54
63202;DHT22;49296;48.188;11.566;2023-06-05T07:02:09;18.67;65.30
63202;DHT22;49296;48.188;11.566;2023-06-05T07:04:38;18.71;65.00
63202;DHT22;49296;48.188;11.566;2023-06-05T07:07:08;18.80;64.89
63202;DHT22;49296;48.188;11.566;2023-06-05T07:09:34;18.77;65.17
63202;DHT22;49296;48.188;11.566;2023-06-05T07:12:01;18.80;65.06
63202;DHT22;49296;48.188;11.566;2023-06-05T07:14:31;19.01;64.93
63202;DHT22;49296;48.188;11.566;2023-06-05T07:16:58;19.11;64.46
63202;DHT22;49296;48.188;11.566;2023-06-05T07:19:26;19.14;64.13
63202;DHT22;49296;48.188;11.566;2023-06-05T07:21:55;19.14;64.36
63202;DHT22;49296;48.188;11.566;2023-06-05T07:24:22;19.23;64.41
63202;DHT22;49296;48.188;11.566;2023-06-05T07:26:51;19.20;64.40
63202;DHT22;49296;48.188;11.566;2023-06-05T07:29:18;19.20;64.04
63202;DHT22;49296;48.188;11.566;2023-06-05T07:31:47;19.27;64.33
63202;DHT22;49296;48.188;11.566;2023-06-05T07:34:14;19.29;64.21
63202;DHT22;49296;48.188;11.566;2023-06-05T07:36:43;19.39;63.73
63202;DHT22;49296;48.188;11.566;2023-06-05T07:39:12;19.40;63.33
63202;DHT22;49296;48.188;11.566;2023-06-05T07:41:39;19.39;63.58
63202;DHT22;49296;48.188;11.566;2023-06-05T07:44:08;19.30;63.57
63202;DHT22;49296;48.188;11.566;2023-06-05T07:46:35;19.33;63.78
63202;DHT22;49296;48.188;11.566;2023-06-05T07:49:03;19.33;63.31
63202;DHT22;49296;48.188;11.566;2023-06-05T07:51:30;19.40;63.13
63202;DHT22;49296;48.188;11.566;2023-06-05T07:53:59;19.51;63.08
63202;DHT22;49296;48.188;11.566;2023-06-05T07:56:29;19.53;63.18
63202;DHT22;49296;48.188;11.566;2023-06-05T07:58:57;19.61;62.91
63202;DHT22;49296;48.188;11.566;2023-06-05T08:01:23;19.70;62.76
63202;DHT22;49296;48.188;11.566;2023-06-05T08:03:51;19.86;62.38
63202;DHT22;49296;48.188;11.566;2023-06-05T08:06:18;19.91;61.82
63202;DHT22;49296;48.188;11.566;2023-06-05T08:08:45;20.04;61.84
63202;DHT22;49296;48.188;11.566;2023-06-05T08:11:12;20.01;61.51
63202;DHT22;49296;48.188;11.566;2023-06-05T08:13:40;20.15;61.64
63202;DHT22;49296;48.188;11.566;2023-06-05T08:16:07;20.23;61.43
63202;DHT22;49296;48.188;11.566;2023-06-05T08:18:34;20.28;60.99
63202;DHT22;49296;48.188;11.566;2023-06-05T08:21:01;20.37;60.46
63202;DHT22;49296;48.188;11.566;2023-06-05T08:23:28;20.37;60.94
63202;DHT22;49296;48.188;11.566;2023-06-05T08:25:55;20.25;60.56
63202;DHT22;49296;48.188;11.566;2023-06-05T08:28:22;19.86;61.26
63202;DHT22;49296;48.188;11.566;2023-06-05T08:30:50;19.89;61.30
63202;DHT22;49296;48.188;11.566;2023-06-05T08:33:18;20.13;61.68
63202;DHT22;49296;48.188;11.566;2023-06-05T08:35:45;20.29;61.03
63202;DHT22;49296;48.188;11.566;2023-06-05T08:38:11;20.25;61.41
63202;DHT22;49296;48.188;11.566;2023-06-05T08:40:39;20.41;61.14
63202;DHT22;49296;48.188;11.566;2023-06-05T08:43:06;20.56;60.07
63202;DHT22;49296;48.188;11.566;2023-06-05T08:45:33;20.67;60.22
63202;DHT22;49296;48.188;11.566;2023-06-05T08:48:01;20.77;59.70
63202;DHT22;49296;48.188;11.566;2023-06-05T08:50:29;20.74;59.86
63202;DHT22;49296;48.188;11.566;2023-06-05T08:52:58;20.90;60.12
63202;DHT22;49296;48.188;11.566;2023-06-05T08:55:26;21.02;59.58
63202;DHT22;49296;48.188;11.566;2023-06-05T08:57:53;21.29;58.36
63202;DHT22;49296;48.188;11.566;2023-06-05T09:00:21;21.49;58.25
63202;DHT22;49296;48.188;11.566;2023-06-05T09:02:48;21.58;58.03
63202;DHT22;49296;48.188;11.566;2023-06-05T09:05:17;21.61;56.41
63202;DHT22;49296;48.188;11.566;2023-06-05T09:07:44;21.58;56.60
63202;DHT22;49296;48.188;11.566;2023-06-05T09:10:24;21.61;55.36
63202;DHT22;49296;48.188;11.566;2023-06-05T09:12:55;21.74;55.74
63202;DHT22;49296;48.188;11.566;2023-06-05T09:15:24;21.73;55.62
63202;DHT22;49296;48.188;11.566;2023-06-05T09:18:08;21.88;55.39
63202;DHT22;49296;48.188;11.566;2023-06-05T09:20:38;21.95;55.11
63202;DHT22;49296;48.188;11.566;2023-06-05T09:23:22;22.01;55.12
63202;DHT22;49296;48.188;11.566;2023-06-05T09:25:50;22.08;55.29
63202;DHT22;49296;48.188;11.566;2023-06-05T09:28:17;21.91;56.21
63202;DHT22;49296;48.188;11.566;2023-06-05T09:30:54;21.49;55.77
63202;DHT22;49296;48.188;11.566;2023-06-05T09:33:21;21.44;55.84
63202;DHT22;49296;48.188;11.566;2023-06-05T09:36:03;21.33;56.23
63202;DHT22;49296;48.188;11.566;2023-06-05T09:38:30;21.43;56.11
63202;DHT22;49296;48.188;11.566;2023-06-05T09:41:04;21.44;56.09
63202;DHT22;49296;48.188;11.566;2023-06-05T09:43:33;21.49;55.90
63202;DHT22;49296;48.188;11.566;2023-06-05T09:46:06;21.67;55.72
63202;DHT22;49296;48.188;11.566;2023-06-05T09:48:36;21.68;56.17
63202;DHT22;49296;48.188;11.566;2023-06-05T09:51:09;21.78;56.75
63202;DHT22;49296;48.188;11.566;2023-06-05T09:53:41;21.70;55.56
63202;DHT22;49296;48.188;11.566;2023-06-05T09:56:11;21.74;54.88
63202;DHT22;49296;48.188;11.566;2023-06-05T09:58:38;21.94;55.13
63202;DHT22;49296;48.188;11.566;2023-06-05T10:01:07;22.08;54.48
63202;DHT22;49296;48.188;11.566;2023-06-05T10:03:36;22.12;53.90
63202;DHT22;49296;48.188;11.566;2023-06-05T10:06:04;22.20;54.11
63202;DHT22;49296;48.188;11.566;2023-06-05T10:08:33;21.96;53.24
63202;DHT22;49296;48.188;11.566;2023-06-05T10:11:00;22.02;53.07
63202;DHT22;49296;48.188;11.566;2023-06-05T10:13:28;21.92;53.14
63202;DHT22;49296;48.188;11.566;2023-06-05T10:15:55;22.10;53.12
63202;DHT22;49296;48.188;11.566;2023-06-05T10:18:22;22.20;53.61
63202;DHT22;49296;48.188;11.566;2023-06-05T10:20:49;22.12;54.18
63202;DHT22;49296;48.188;11.566;2023-06-05T10:23:17;22.06;54.36
63202;DHT22;49296;48.188;11.566;2023-06-05T10:25:47;21.91;54.34
63202;DHT22;49296;48.188;11.566;2023-06-05T10:28:25;22.16;53.78
63202;DHT22;49296;48.188;11.566;2023-06-05T10:31:24;22.22;53.61
63202;DHT22;49296;48.188;11.566;2023-06-05T10:34:24;22.37;53.19
63202;DHT22;49296;48.188;11.566;2023-06-05T10:37:15;22.30;52.79
63202;DHT22;49296;48.188;11.566;2023-06-05T10:39:48;22.32;52.76
63202;DHT22;49296;48.188;11.566;2023-06-05T10:42:24;22.53;54.13
63202;DHT22;49296;48.188;11.566;2023-06-05T10:44:52;22.41;52.39
63202;DHT22;49296;48.188;11.566;2023-06-05T10:47:50;22.32;52.81
63202;DHT22;49296;48.188;11.566;2023-06-05T10:50:28;22.36;53.23
63202;DHT22;49296;48.188;11.566;2023-06-05T10:52:57;22.44;52.86
63202;DHT22;49296;48.188;11.566;2023-06-05T10:55:26;22.46;52.61
63202;DHT22;49296;48.188;11.566;2023-06-05T10:58:10;22.61;53.19
63202;DHT22;49296;48.188;11.566;2023-06-05T11:01:18;22.69;52.86
63202;DHT22;49296;48.188;11.566;2023-06-05T11:03:56;22.82;52.52
63202;DHT22;49296;48.188;11.566;2023-06-05T11:06:23;22.64;51.83
63202;DHT22;49296;48.188;11.566;2023-06-05T11:09:06;22.88;51.59
63202;DHT22;49296;48.188;11.566;2023-06-05T11:11:55;23.19;51.29
63202;DHT22;49296;48.188;11.566;2023-06-05T11:14:24;23.27;50.02
63202;DHT22;49296;48.188;11.566;2023-06-05T11:16:51;23.39;51.31
63202;DHT22;49296;48.188;11.566;2023-06-05T11:19:36;23.39;50.81
63202;DHT22;49296;48.188;11.566;2023-06-05T11:22:05;23.15;51.59
63202;DHT22;49296;48.188;11.566;2023-06-05T11:24:33;23.22;51.24
63202;DHT22;49296;48.188;11.566;2023-06-05T11:27:01;23.12;51.59
63202;DHT22;49296;48.188;11.566;2023-06-05T11:29:30;23.16;51.54
63202;DHT22;49296;48.188;11.566;2023-06-05T11:31:57;22.91;50.14
63202;DHT22;49296;48.188;11.566;2023-06-05T11:34:24;23.09;50.53
63202;DHT22;49296;48.188;11.566;2023-06-05T11:36:53;23.12;50.61
63202;DHT22;49296;48.188;11.566;2023-06-05T11:39:20;23.22;50.37
63202;DHT22;49296;48.188;11.566;2023-06-05T11:41:47;23.22;50.59
63202;DHT22;49296;48.188;11.566;2023-06-05T11:44:15;23.24;50.80
63202;DHT22;49296;48.188;11.566;2023-06-05T11:46:57;23.19;51.73
63202;DHT22;49296;48.188;11.566;2023-06-05T11:49:25;23.22;51.66
63202;DHT22;49296;48.188;11.566;2023-06-05T11:51:52;22.98;50.68
63202;DHT22;49296;48.188;11.566;2023-06-05T11:54:29;23.13;50.54
63202;DHT22;49296;48.188;11.566;2023-06-05T11:57:00;23.19;51.19
63202;DHT22;49296;48.188;11.566;2023-06-05T11:59:34;23.39;50.86
63202;DHT22;49296;48.188;11.566;2023-06-05T12:02:03;23.54;50.51
63202;DHT22;49296;48.188;11.566;2023-06-05T12:04:30;23.68;50.96
63202;DHT22;49296;48.188;11.566;2023-06-05T12:06:57;23.85;50.22
63202;DHT22;49296;48.188;11.566;2023-06-05T12:09:25;23.89;50.23
63202;DHT22;49296;48.188;11.566;2023-06-05T12:11:51;23.98;49.54
63202;DHT22;49296;48.188;11.566;2023-06-05T12:14:29;23.98;49.52
63202;DHT22;49296;48.188;11.566;2023-06-05T12:16:57;23.89;50.07
63202;DHT22;49296;48.188;11.566;2023-06-05T12:19:25;23.75;50.19
63202;DHT22;49296;48.188;11.566;2023-06-05T12:22:01;23.81;50.41
63202;DHT22;49296;48.188;11.566;2023-06-05T12:24:28;23.95;50.09
63202;DHT22;49296;48.188;11.566;2023-06-05T12:26:56;23.95;49.87
63202;DHT22;49296;48.188;11.566;2023-06-05T12:29:25;23.90;50.65
63202;DHT22;49296;48.188;11.566;2023-06-05T12:31:54;23.90;50.62
63202;DHT22;49296;48.188;11.566;2023-06-05T12:34:42;23.67;51.39
63202;DHT22;49296;48.188;11.566;2023-06-05T12:37:10;23.85;51.85
63202;DHT22;49296;48.188;11.566;2023-06-05T12:39:38;24.13;51.22
63202;DHT22;49296;48.188;11.566;2023-06-05T12:42:05;24.22;51.09
63202;DHT22;49296;48.188;11.566;2023-06-05T12:44:32;23.99;51.35
63202;DHT22;49296;48.188;11.566;2023-06-05T12:46:59;24.02;51.15
63202;DHT22;49296;48.188;11.566;2023-06-05T12:49:26;23.99;51.04
63202;DHT22;49296;48.188;11.566;2023-06-05T12:51:54;23.98;51.62
63202;DHT22;49296;48.188;11.566;2023-06-05T12:54:22;23.85;51.77
63202;DHT22;49296;48.188;11.566;2023-06-05T12:56:49;24.19;51.75
63202;DHT22;49296;48.188;11.566;2023-06-05T12:59:15;24.26;51.17
63202;DHT22;49296;48.188;11.566;2023-06-05T13:01:42;24.44;50.95
63202;DHT22;49296;48.188;11.566;2023-06-05T13:04:09;24.47;50.63
63202;DHT22;49296;48.188;11.566;2023-06-05T13:06:36;24.57;51.22
63202;DHT22;49296;48.188;11.566;2023-06-05T13:09:04;24.65;49.79
63202;DHT22;49296;48.188;11.566;2023-06-05T13:11:31;24.41;51.23
63202;DHT22;49296;48.188;11.566;2023-06-05T13:13:57;24.64;50.36
63202;DHT22;49296;48.188;11.566;2023-06-05T13:16:25;24.37;51.48
63202;DHT22;49296;48.188;11.566;2023-06-05T13:18:52;24.63;50.82
63202;DHT22;49296;48.188;11.566;2023-06-05T13:21:19;24.36;51.68
63202;DHT22;49296;48.188;11.566;2023-06-05T13:23:45;24.36;51.17
63202;DHT22;49296;48.188;11.566;2023-06-05T13:26:13;24.27;51.51
63202;DHT22;49296;48.188;11.566;2023-06-05T13:28:40;24.33;51.39
63202;DHT22;49296;48.188;11.566;2023-06-05T13:31:10;24.41;51.28
63202;DHT22;49296;48.188;11.566;2023-06-05T13:33:38;24.32;51.15
63202;DHT22;49296;48.188;11.566;2023-06-05T13:36:06;24.34;51.07
63202;DHT22;49296;48.188;11.566;2023-06-05T13:38:34;24.29;51.57
63202;DHT22;49296;48.188;11.566;2023-06-05T13:41:03;24.26;51.19
63202;DHT22;49296;48.188;11.566;2023-06-05T13:43:32;24.33;51.09
63202;DHT22;49296;48.188;11.566;2023-06-05T13:45:59;24.72;50.93
63202;DHT22;49296;48.188;11.566;2023-06-05T13:48:27;25.02;49.68
63202;DHT22;49296;48.188;11.566;2023-06-05T13:50:53;25.31;49.55
63202;DHT22;49296;48.188;11.566;2023-06-05T13:53:21;25.47;48.47
63202;DHT22;49296;48.188;11.566;2023-06-05T13:55:48;25.55;48.45
63202;DHT22;49296;48.188;11.566;2023-06-05T13:58:15;25.38;48.51
63202;DHT22;49296;48.188;11.566;2023-06-05T14:00:43;25.53;48.54
63202;DHT22;49296;48.188;11.566;2023-06-05T14:03:10;25.46;48.47
63202;DHT22;49296;48.188;11.566;2023-06-05T14:05:37;25.43;48.83
63202;DHT22;49296;48.188;11.566;2023-06-05T14:08:04;25.26;49.05
63202;DHT22;49296;48.188;11.566;2023-06-05T14:10:32;25.15;48.82
63202;DHT22;49296;48.188;11.566;2023-06-05T14:13:01;25.08;48.72
63202;DHT22;49296;48.188;11.566;2023-06-05T14:15:31;25.18;49.09
63202;DHT22;49296;48.188;11.566;2023-06-05T14:18:00;24.91;49.65
63202;DHT22;49296;48.188;11.566;2023-06-05T14:20:28;25.02;49.25
63202;DHT22;49296;48.188;11.566;2023-06-05T14:22:55;25.05;48.76
63202;DHT22;49296;48.188;11.566;2023-06-05T14:25:23;25.05;49.00
63202;DHT22;49296;48.188;11.566;2023-06-05T14:27:53;25.47;48.43
63202;DHT22;49296;48.188;11.566;2023-06-05T14:30:21;25.44;48.60
63202;DHT22;49296;48.188;11.566;2023-06-05T14:32:47;25.23;48.69
63202;DHT22;49296;48.188;11.566;2023-06-05T14:35:16;25.40;48.56
63202;DHT22;49296;48.188;11.566;2023-06-05T14:37:45;25.20;48.30
63202;DHT22;49296;48.188;11.566;2023-06-05T14:40:12;25.30;48.21
63202;DHT22;49296;48.188;11.566;2023-06-05T14:42:39;25.41;48.34
63202;DHT22;49296;48.188;11.566;2023-06-05T14:45:06;25.74;47.77
63202;DHT22;49296;48.188;11.566;2023-06-05T14:47:33;25.89;47.58
63202;DHT22;49296;48.188;11.566;2023-06-05T14:50:00;26.23;47.52
63202;DHT22;49296;48.188;11.566;2023-06-05T14:52:28;26.09;47.55
63202;DHT22;49296;48.188;11.566;2023-06-05T14:54:55;26.33;46.98
63202;DHT22;49296;48.188;11.566;2023-06-05T14:57:22;26.54;46.77
63202;DHT22;49296;48.188;11.566;2023-06-05T14:59:49;26.94;45.99
63202;DHT22;49296;48.188;11.566;2023-06-05T15:02:15;26.86;45.59
63202;DHT22;49296;48.188;11.566;2023-06-05T15:04:47;27.27;44.77
63202;DHT22;49296;48.188;11.566;2023-06-05T15:07:17;27.41;44.62
63202;DHT22;49296;48.188;11.566;2023-06-05T15:09:46;26.94;46.11
63202;DHT22;49296;48.188;11.566;2023-06-05T15:12:13;26.62;46.29
63202;DHT22;49296;48.188;11.566;2023-06-05T15:14:39;26.50;46.55
63202;DHT22;49296;48.188;11.566;2023-06-05T15:17:06;26.52;46.22
63202;DHT22;49296;48.188;11.566;2023-06-05T15:19:34;26.52;46.25
63202;DHT22;49296;48.188;11.566;2023-06-05T15:22:01;26.37;46.86
63202;DHT22;49296;48.188;11.566;2023-06-05T15:24:28;26.52;46.18